createdAt,value
2022-10-06T00:01:19.734Z,101187.34
2022-10-06T00:03:47.426Z,101185.47
2022-10-06T00:06:16.934Z,101181.53
2022-10-06T00:08:47.001Z,101182.13
2022-10-06T00:11:16.159Z,101178.38
2022-10-06T00:13:43.661Z,101182.34
2022-10-06T00:16:17.471Z,101180.25
2022-10-06T00:18:46.054Z,101175.87
2022-10-06T00:21:13.886Z,101176.50
2022-10-06T00:23:41.795Z,101177.16
2022-10-06T00:26:17.014Z,101176.75
2022-10-06T00:28:50.214Z,101175.09
2022-10-06T00:31:22.360Z,101177.62
2022-10-06T00:33:52.116Z,101179.31
2022-10-06T00:36:21.146Z,101179.31
2022-10-06T00:38:51.020Z,101178.06
2022-10-06T00:41:20.748Z,101174.75
2022-10-06T00:43:53.670Z,101184.97
2022-10-06T00:46:45.177Z,101178.12
2022-10-06T00:49:18.933Z,101173.13
2022-10-06T00:51:53.883Z,101177.06
2022-10-06T00:54:21.866Z,101176.91
2022-10-06T00:56:49.494Z,101171.12
2022-10-06T00:59:20.880Z,101168.66
2022-10-06T01:02:06.965Z,101176.16
2022-10-06T01:04:37.871Z,101173.69
2022-10-06T01:07:06.139Z,101175.78
2022-10-06T01:09:33.849Z,101172.91
2022-10-06T01:12:05.668Z,101175.59
2022-10-06T01:14:33.934Z,101174.34
2022-10-06T01:17:08.606Z,101172.69
2022-10-06T01:19:50.380Z,101178.97
2022-10-06T01:22:21.309Z,101175.66
2022-10-06T01:24:52.555Z,101176.47
2022-10-06T01:27:21.725Z,101178.97
2022-10-06T01:29:53.719Z,101177.34
2022-10-06T01:32:25.099Z,101182.97
2022-10-06T01:34:54.945Z,101176.09
2022-10-06T01:37:22.435Z,101178.38
2022-10-06T01:39:49.957Z,101176.31
2022-10-06T01:42:17.705Z,101188.38
2022-10-06T01:44:45.178Z,101187.91
2022-10-06T01:47:12.670Z,101183.59
2022-10-06T01:49:40.572Z,101186.72
2022-10-06T01:52:08.518Z,101189.97
2022-10-06T01:54:36.240Z,101187.06
2022-10-06T01:57:06.795Z,101188.59
2022-10-06T01:59:34.537Z,101193.72
2022-10-06T02:02:02.540Z,101196.22
2022-10-06T02:04:32.245Z,101193.09
2022-10-06T02:07:02.532Z,101192.91
2022-10-06T02:09:32.361Z,101193.94
2022-10-06T02:11:59.925Z,101199.56
2022-10-06T02:14:27.446Z,101192.06
2022-10-06T02:16:54.933Z,101194.16
2022-10-06T02:19:22.427Z,101198.28
2022-10-06T02:21:49.925Z,101195.78
2022-10-06T02:24:20.925Z,101199.13
2022-10-06T02:26:50.872Z,101192.47
2022-10-06T02:29:18.350Z,101207.22
2022-10-06T02:31:45.858Z,101204.53
2022-10-06T02:34:14.114Z,101204.72
2022-10-06T02:36:43.991Z,101208.25
2022-10-06T02:39:11.903Z,101204.31
2022-10-06T02:41:39.451Z,101201.81
2022-10-06T02:44:07.007Z,101202.84
2022-10-06T02:46:34.792Z,101198.91
2022-10-06T02:49:02.374Z,101205.34
2022-10-06T02:51:31.243Z,101197.03
2022-10-06T02:53:58.840Z,101206.81
2022-10-06T02:56:26.999Z,101204.50
2022-10-06T02:58:55.597Z,101203.69
2022-10-06T03:01:26.503Z,101205.94
2022-10-06T03:03:54.785Z,101206.97
2022-10-06T03:06:27.893Z,101202.19
2022-10-06T03:08:56.826Z,101205.31
2022-10-06T03:11:27.857Z,101201.97
2022-10-06T03:13:56.071Z,101208.62
2022-10-06T03:16:46.013Z,101211.09
2022-10-06T03:19:13.516Z,101211.06
2022-10-06T03:21:45.490Z,101215.25
2022-10-06T03:24:13.436Z,101214.62
2022-10-06T03:26:43.974Z,101219.38
2022-10-06T03:29:16.027Z,101212.72
2022-10-06T03:31:44.208Z,101211.44
2022-10-06T03:34:13.449Z,101215.19
2022-10-06T03:36:40.997Z,101213.94
2022-10-06T03:39:08.941Z,101216.84
2022-10-06T03:41:38.961Z,101215.41
2022-10-06T03:44:06.661Z,101219.97
2022-10-06T03:46:35.858Z,101217.88
2022-10-06T03:49:04.225Z,101220.59
2022-10-06T03:51:34.725Z,101207.91
2022-10-06T03:54:02.634Z,101201.88
2022-10-06T03:56:37.043Z,101208.94
2022-10-06T03:59:13.590Z,101212.69
2022-10-06T04:01:46.605Z,101211.84
2022-10-06T04:04:14.798Z,101216.03
2022-10-06T04:06:44.879Z,101210.41
2022-10-06T04:09:15.909Z,101220.37
2022-10-06T04:11:44.920Z,101226.41
2022-10-06T04:14:19.172Z,101230.16
2022-10-06T04:16:51.655Z,101223.50
2022-10-06T04:19:19.924Z,101220.19
2022-10-06T04:21:48.579Z,101225.59
2022-10-06T04:24:18.420Z,101231.19
2022-10-06T04:26:48.785Z,101226.41
2022-10-06T04:29:16.853Z,101227.84
2022-10-06T04:31:46.980Z,101231.59
2022-10-06T04:34:14.760Z,101235.53
2022-10-06T04:36:43.497Z,101237.22
2022-10-06T04:39:13.228Z,101233.44
2022-10-06T04:41:46.635Z,101233.66
2022-10-06T04:44:14.322Z,101228.25
2022-10-06T04:46:43.738Z,101224.09
2022-10-06T04:49:19.549Z,101221.97
2022-10-06T04:51:49.682Z,101220.56
2022-10-06T04:54:18.660Z,101220.56
2022-10-06T04:56:46.435Z,101227.63
2022-10-06T04:59:14.209Z,101226.78
2022-10-06T05:01:44.232Z,101224.09
2022-10-06T05:04:11.946Z,101226.37
2022-10-06T05:06:41.733Z,101232.22
2022-10-06T05:09:12.054Z,101234.31
2022-10-06T05:11:42.803Z,101235.97
2022-10-06T05:14:10.391Z,101229.75
2022-10-06T05:16:40.529Z,101233.53
2022-10-06T05:19:08.298Z,101228.56
2022-10-06T05:21:36.511Z,101229.63
2022-10-06T05:24:04.241Z,101232.12
2022-10-06T05:26:33.802Z,101241.06
2022-10-06T05:29:01.832Z,101230.09
2022-10-06T05:31:35.156Z,101234.91
2022-10-06T05:34:02.779Z,101241.13
2022-10-06T05:36:32.716Z,101239.72
2022-10-06T05:39:00.624Z,101234.09
2022-10-06T05:41:33.201Z,101232.91
2022-10-06T05:44:01.082Z,101243.31
2022-10-06T05:46:35.531Z,101239.97
2022-10-06T05:49:06.052Z,101248.69
2022-10-06T05:51:35.586Z,101235.78
2022-10-06T05:54:03.935Z,101243.66
2022-10-06T05:56:34.018Z,101242.78
2022-10-06T05:59:02.355Z,101250.47
2022-10-06T06:01:39.974Z,101242.88
2022-10-06T06:04:10.598Z,101252.00
2022-10-06T06:06:50.549Z,101256.31
2022-10-06T06:09:22.657Z,101251.88
2022-10-06T06:11:52.730Z,101259.69
2022-10-06T06:14:42.777Z,101263.66
2022-10-06T06:17:09.513Z,101256.06
2022-10-06T06:19:37.021Z,101257.22
2022-10-06T06:22:04.699Z,101270.72
2022-10-06T06:24:32.172Z,101269.44
2022-10-06T06:27:01.890Z,101279.62
2022-10-06T06:29:29.373Z,101284.63
2022-10-06T06:32:00.333Z,101289.56
2022-10-06T06:34:29.052Z,101290.56
2022-10-06T06:37:03.591Z,101290.94
2022-10-06T06:39:35.238Z,101298.28
2022-10-06T06:42:05.121Z,101296.53
2022-10-06T06:44:32.858Z,101300.09
2022-10-06T06:47:01.355Z,101303.59
2022-10-06T06:49:33.758Z,101308.59
2022-10-06T06:52:05.168Z,101300.97
2022-10-06T06:54:32.649Z,101308.19
2022-10-06T06:57:00.511Z,101305.91
2022-10-06T06:59:28.020Z,101305.47
2022-10-06T07:01:57.641Z,101312.81
2022-10-06T07:04:25.226Z,101311.69
2022-10-06T07:06:58.308Z,101308.88
2022-10-06T07:09:27.119Z,101313.25
2022-10-06T07:11:55.434Z,101317.88
2022-10-06T07:14:24.597Z,101317.75
2022-10-06T07:17:10.256Z,101319.66
2022-10-06T07:19:55.301Z,101319.78
2022-10-06T07:22:42.864Z,101322.06
2022-10-06T07:25:36.719Z,101320.19
2022-10-06T07:28:07.740Z,101323.47
2022-10-06T07:30:40.465Z,101328.78
2022-10-06T07:33:08.632Z,101329.53
2022-10-06T07:35:42.524Z,101327.63
2022-10-06T07:38:10.068Z,101330.25
2022-10-06T07:40:42.726Z,101334.09
2022-10-06T07:43:20.731Z,101332.88
2022-10-06T07:45:49.595Z,101331.66
2022-10-06T07:48:23.446Z,101336.16
2022-10-06T07:50:53.640Z,101338.59
2022-10-06T07:53:28.565Z,101343.47
2022-10-06T07:56:04.500Z,101339.38
2022-10-06T07:58:32.006Z,101337.66
2022-10-06T08:01:07.109Z,101346.56
2022-10-06T08:03:37.355Z,101347.56
2022-10-06T08:06:05.183Z,101344.19
2022-10-06T08:08:36.947Z,101355.91
2022-10-06T08:11:08.586Z,101353.25
2022-10-06T08:13:40.393Z,101355.19
2022-10-06T08:16:11.503Z,101351.41
2022-10-06T08:18:46.491Z,101356.97
2022-10-06T08:21:17.576Z,101356.13
2022-10-06T08:23:46.741Z,101354.00
2022-10-06T08:26:18.817Z,101355.87
2022-10-06T08:28:51.494Z,101348.72
2022-10-06T08:31:21.669Z,101355.09
2022-10-06T08:33:49.704Z,101355.44
2022-10-06T08:36:21.736Z,101361.44
2022-10-06T08:38:50.432Z,101356.91
2022-10-06T08:41:39.678Z,101351.13
2022-10-06T08:44:21.739Z,101347.34
2022-10-06T08:46:54.826Z,101351.81
2022-10-06T08:49:24.653Z,101358.28
2022-10-06T08:51:56.190Z,101352.41
2022-10-06T08:54:46.156Z,101353.56
2022-10-06T08:57:30.013Z,101357.56
2022-10-06T09:00:00.348Z,101356.59
2022-10-06T09:02:39.125Z,101350.06
2022-10-06T09:05:10.270Z,101352.34
2022-10-06T09:07:49.648Z,101359.75
2022-10-06T09:10:20.172Z,101353.19
2022-10-06T09:13:06.595Z,101353.53
2022-10-06T09:15:51.388Z,101352.16
2022-10-06T09:18:49.352Z,101352.00
2022-10-06T09:21:23.448Z,101355.19
2022-10-06T09:23:58.046Z,101359.63
2022-10-06T09:26:31.326Z,101357.88
2022-10-06T09:29:01.606Z,101360.56
2022-10-06T09:31:42.208Z,101365.00
2022-10-06T09:34:10.091Z,101362.91
2022-10-06T09:37:09.016Z,101363.66
2022-10-06T09:39:39.149Z,101364.75
2022-10-06T09:42:18.800Z,101361.97
2022-10-06T09:44:52.352Z,101358.00
2022-10-06T09:47:44.946Z,101358.84
2022-10-06T09:50:16.349Z,101364.47
2022-10-06T09:52:59.257Z,101359.53
2022-10-06T09:55:33.821Z,101367.31
2022-10-06T09:58:02.461Z,101368.31
2022-10-06T10:00:34.860Z,101375.22
2022-10-06T10:03:08.770Z,101375.38
2022-10-06T10:05:39.111Z,101364.22
2022-10-06T10:08:15.672Z,101371.81
2022-10-06T10:10:43.180Z,101371.41
2022-10-06T10:13:27.084Z,101363.19
2022-10-06T10:16:02.718Z,101363.28
2022-10-06T10:18:34.617Z,101365.53
2022-10-06T10:21:06.363Z,101360.59
2022-10-06T10:23:40.756Z,101361.88
2022-10-06T10:26:49.062Z,101350.62
2022-10-06T10:29:45.303Z,101353.25
2022-10-06T10:32:41.305Z,101355.53
2022-10-06T10:35:19.317Z,101356.19
2022-10-06T10:37:53.741Z,101349.59
2022-10-06T10:40:36.278Z,101347.69
2022-10-06T10:43:28.933Z,101327.38
2022-10-06T10:46:38.071Z,101332.19
2022-10-06T10:49:13.602Z,101343.88
2022-10-06T10:51:52.044Z,101340.94
2022-10-06T10:54:31.307Z,101342.66
2022-10-06T10:57:03.544Z,101340.47
2022-10-06T10:59:55.235Z,101340.47
2022-10-06T11:02:23.622Z,101343.38
2022-10-06T11:05:04.477Z,101343.09
2022-10-06T11:07:46.960Z,101341.28
2022-10-06T11:10:21.142Z,101341.38
2022-10-06T11:12:52.119Z,101342.41
2022-10-06T11:15:41.488Z,101345.59
2022-10-06T11:18:27.110Z,101339.25
2022-10-06T11:21:01.367Z,101329.69
2022-10-06T11:23:47.015Z,101339.63
2022-10-06T11:26:53.375Z,101340.16
2022-10-06T11:29:32.909Z,101326.84
2022-10-06T11:32:28.736Z,101336.94
2022-10-06T11:34:58.905Z,101337.09
2022-10-06T11:37:49.929Z,101330.62
2022-10-06T11:40:32.710Z,101320.00
2022-10-06T11:43:25.280Z,101328.13
2022-10-06T11:46:18.669Z,101323.56
2022-10-06T11:48:46.756Z,101315.88
2022-10-06T11:51:26.625Z,101317.72
2022-10-06T11:53:55.565Z,101310.44
2022-10-06T11:56:24.003Z,101311.31
2022-10-06T11:58:57.761Z,101311.25
2022-10-06T12:01:34.789Z,101308.22
2022-10-06T12:04:14.427Z,101306.00
2022-10-06T12:06:45.138Z,101307.25
2022-10-06T12:09:29.237Z,101308.84
2022-10-06T12:11:58.927Z,101305.44
2022-10-06T12:17:58.294Z,101299.69
2022-10-06T12:20:54.947Z,101297.59
2022-10-06T12:23:50.267Z,101297.66
2022-10-06T12:26:38.360Z,101302.06
2022-10-06T12:29:33.687Z,101302.59
2022-10-06T12:32:19.168Z,101300.69
2022-10-06T12:35:03.100Z,101295.47
2022-10-06T12:37:30.849Z,101293.25
2022-10-06T12:40:40.348Z,101292.50
2022-10-06T12:43:11.712Z,101290.38
2022-10-06T12:45:46.417Z,101288.69
2022-10-06T12:48:39.293Z,101289.69
2022-10-06T12:51:24.197Z,101274.37
2022-10-06T12:53:55.326Z,101283.31
2022-10-06T12:56:31.687Z,101277.28
2022-10-06T12:58:59.690Z,101281.47
2022-10-06T13:01:28.245Z,101273.53
2022-10-06T13:03:56.242Z,101268.47
2022-10-06T13:06:26.881Z,101278.63
2022-10-06T13:09:22.663Z,101274.88
2022-10-06T13:11:52.555Z,101269.62
2022-10-06T13:14:20.117Z,101268.28
2022-10-06T13:16:52.591Z,101270.72
2022-10-06T13:19:32.326Z,101270.34
2022-10-06T13:22:03.940Z,101270.38
2022-10-06T13:24:33.723Z,101269.22
2022-10-06T13:27:02.959Z,101265.13
2022-10-06T13:29:31.780Z,101260.87
2022-10-06T13:31:59.315Z,101261.91
2022-10-06T13:34:43.281Z,101257.53
2022-10-06T13:37:17.586Z,101256.47
2022-10-06T13:39:45.193Z,101253.63
2022-10-06T13:42:20.347Z,101253.00
2022-10-06T13:45:00.523Z,101250.87
2022-10-06T13:47:30.185Z,101252.81
2022-10-06T13:50:08.026Z,101244.06
2022-10-06T13:52:46.890Z,101254.75
2022-10-06T13:55:26.005Z,101245.19
2022-10-06T13:58:01.969Z,101256.59
2022-10-06T14:00:34.498Z,101254.72
2022-10-06T14:03:08.092Z,101257.66
2022-10-06T14:05:39.810Z,101255.19
2022-10-06T14:08:13.118Z,101255.50
2022-10-06T14:10:55.776Z,101260.75
2022-10-06T14:13:31.107Z,101256.22
2022-10-06T14:16:02.400Z,101257.69
2022-10-06T14:18:38.796Z,101261.06
2022-10-06T14:21:18.441Z,101266.34
2022-10-06T14:23:53.930Z,101262.25
2022-10-06T14:26:29.788Z,101263.13
2022-10-06T14:28:58.272Z,101270.03
2022-10-06T14:31:28.692Z,101274.16
2022-10-06T14:33:57.383Z,101268.38
2022-10-06T14:36:30.203Z,101264.34
2022-10-06T14:38:59.145Z,101271.25
2022-10-06T14:41:30.625Z,101270.16
2022-10-06T14:44:10.897Z,101279.00
2022-10-06T14:46:40.063Z,101276.56
2022-10-06T14:49:13.383Z,101274.69
2022-10-06T14:51:43.109Z,101281.28
2022-10-06T14:54:11.729Z,101275.81
2022-10-06T14:56:40.663Z,101276.94
2022-10-06T14:59:18.062Z,101281.34
2022-10-06T15:01:46.397Z,101282.22
2022-10-06T15:04:16.692Z,101285.81
2022-10-06T15:07:01.822Z,101290.72
2022-10-06T15:09:31.069Z,101284.63
2022-10-06T15:12:00.215Z,101282.72
2022-10-06T15:14:29.581Z,101288.72
2022-10-06T15:17:00.316Z,101295.84
2022-10-06T15:19:28.505Z,101290.06
2022-10-06T15:21:56.250Z,101288.63
2022-10-06T15:24:23.794Z,101299.88
2022-10-06T15:27:09.094Z,101304.75
2022-10-06T15:29:36.607Z,101305.78
2022-10-06T15:32:06.522Z,101315.09
2022-10-06T15:34:36.819Z,101312.91
2022-10-06T15:37:05.166Z,101303.59
2022-10-06T15:39:37.104Z,101308.59
2022-10-06T15:42:05.565Z,101307.53
2022-10-06T15:44:34.899Z,101307.19
2022-10-06T15:47:03.042Z,101317.31
2022-10-06T15:49:33.016Z,101307.38
2022-10-06T15:52:03.278Z,101324.87
2022-10-06T15:54:34.830Z,101321.53
2022-10-06T15:57:05.621Z,101317.59
2022-10-06T15:59:34.489Z,101316.69
2022-10-06T16:02:07.802Z,101324.59
2022-10-06T16:04:55.456Z,101339.31
2022-10-06T16:07:23.023Z,101335.09
2022-10-06T16:09:52.235Z,101328.63
2022-10-06T16:12:24.851Z,101340.59
2022-10-06T16:14:54.890Z,101336.69
2022-10-06T16:17:22.454Z,101342.03
2022-10-06T16:19:50.105Z,101344.72
2022-10-06T16:22:19.408Z,101347.69
2022-10-06T16:24:47.008Z,101342.16
2022-10-06T16:27:16.247Z,101345.63
2022-10-06T16:29:44.201Z,101345.06
2022-10-06T16:32:13.988Z,101346.66
2022-10-06T16:34:41.525Z,101354.03
2022-10-06T16:37:09.057Z,101354.56
2022-10-06T16:39:39.247Z,101357.56
2022-10-06T16:42:06.821Z,101364.63
2022-10-06T16:44:34.385Z,101368.13
2022-10-06T16:47:02.012Z,101365.56
2022-10-06T16:49:29.602Z,101368.81
2022-10-06T16:51:59.554Z,101373.72
2022-10-06T16:54:28.775Z,101370.66
2022-10-06T16:56:58.153Z,101373.09
2022-10-06T16:59:28.845Z,101373.59
2022-10-06T17:01:58.752Z,101374.94
2022-10-06T17:04:26.683Z,101379.25
2022-10-06T17:06:55.326Z,101378.44
2022-10-06T17:09:27.478Z,101373.53
2022-10-06T17:12:02.268Z,101374.94
2022-10-06T17:14:31.933Z,101379.31
2022-10-06T17:17:02.248Z,101383.97
2022-10-06T17:19:31.162Z,101380.72
2022-10-06T17:22:00.977Z,101382.94
2022-10-06T17:24:31.265Z,101387.84
2022-10-06T17:27:01.731Z,101390.28
2022-10-06T17:29:29.358Z,101388.63
2022-10-06T17:31:58.811Z,101393.78
2022-10-06T17:34:32.620Z,101391.50
2022-10-06T17:37:01.979Z,101394.16
2022-10-06T17:39:29.549Z,101389.69
2022-10-06T17:41:59.728Z,101394.00
2022-10-06T17:44:28.743Z,101397.25
2022-10-06T17:47:00.181Z,101393.81
2022-10-06T17:49:28.569Z,101394.81
2022-10-06T17:51:56.492Z,101394.25
2022-10-06T17:54:33.566Z,101384.88
2022-10-06T17:57:01.065Z,101377.69
2022-10-06T17:59:31.697Z,101379.25
2022-10-06T18:02:02.604Z,101380.34
2022-10-06T18:04:31.107Z,101386.06
2022-10-06T18:07:08.463Z,101379.72
2022-10-06T18:09:35.982Z,101392.38
2022-10-06T18:12:04.225Z,101386.06
2022-10-06T18:14:37.303Z,101386.91
2022-10-06T18:17:04.869Z,101385.47
2022-10-06T18:19:35.122Z,101395.22
2022-10-06T18:22:07.934Z,101390.50
2022-10-06T18:24:38.877Z,101390.19
2022-10-06T18:27:08.093Z,101392.84
2022-10-06T18:29:38.099Z,101396.78
2022-10-06T18:37:42.466Z,101392.63
2022-10-06T18:40:11.185Z,101395.28
2022-10-06T18:42:39.513Z,101400.59
2022-10-06T18:45:28.693Z,101401.59
2022-10-06T18:48:13.971Z,101402.53
2022-10-06T18:50:44.925Z,101398.63
2022-10-06T18:53:12.503Z,101408.66
2022-10-06T18:55:40.002Z,101414.31
2022-10-06T18:58:07.500Z,101421.09
2022-10-06T19:00:35.007Z,101422.19
2022-10-06T19:03:02.474Z,101425.38
2022-10-06T19:05:30.998Z,101428.38
2022-10-06T19:07:58.524Z,101423.97
2022-10-06T19:10:26.018Z,101425.03
2022-10-06T19:12:53.840Z,101418.16
2022-10-06T19:15:24.336Z,101413.53
2022-10-06T19:17:51.851Z,101416.75
2022-10-06T19:20:19.406Z,101406.91
2022-10-06T19:22:47.879Z,101413.09
2022-10-06T19:25:18.609Z,101414.41
2022-10-06T19:27:46.374Z,101410.47
2022-10-06T19:30:15.895Z,101409.87
2022-10-06T19:32:43.653Z,101413.69
2022-10-06T19:35:13.675Z,101414.16
2022-10-06T19:37:41.634Z,101416.06
2022-10-06T19:40:11.311Z,101425.09
2022-10-06T19:42:50.988Z,101424.50
2022-10-06T19:45:20.663Z,101420.47
2022-10-06T19:47:48.231Z,101420.47
2022-10-06T19:50:17.651Z,101425.09
2022-10-06T19:52:47.521Z,101433.03
2022-10-06T19:55:20.152Z,101435.19
2022-10-06T19:57:47.663Z,101433.53
2022-10-06T20:00:16.185Z,101438.16
2022-10-06T20:02:44.800Z,101437.31
2022-10-06T20:05:17.478Z,101434.25
2022-10-06T20:07:47.526Z,101444.00
2022-10-06T20:10:17.757Z,101440.44
2022-10-06T20:12:45.286Z,101444.81
2022-10-06T20:15:13.008Z,101441.97
2022-10-06T20:17:42.363Z,101446.84
2022-10-06T20:20:13.753Z,101446.22
2022-10-06T20:22:41.304Z,101444.22
2022-10-06T20:25:11.277Z,101440.78
2022-10-06T20:27:38.763Z,101447.19
2022-10-06T20:30:06.855Z,101445.03
2022-10-06T20:32:34.798Z,101447.41
2022-10-06T20:35:05.012Z,101463.06
2022-10-06T20:37:35.071Z,101461.28
2022-10-06T20:40:19.822Z,101456.16
2022-10-06T20:42:49.460Z,101457.09
2022-10-06T20:45:17.130Z,101459.91
2022-10-06T20:47:45.586Z,101462.12
2022-10-06T20:50:14.011Z,101463.63
2022-10-06T20:52:41.617Z,101467.53
2022-10-06T20:55:09.238Z,101472.84
2022-10-06T20:57:36.872Z,101474.37
2022-10-06T21:00:05.087Z,101468.34
2022-10-06T21:02:35.193Z,101474.00
2022-10-06T21:05:02.753Z,101464.19
2022-10-06T21:07:30.229Z,101466.91
2022-10-06T21:09:57.716Z,101466.50
2022-10-06T21:12:25.253Z,101470.28
2022-10-06T21:14:52.743Z,101474.09
2022-10-06T21:17:20.247Z,101473.41
2022-10-06T21:19:49.065Z,101466.31
2022-10-06T21:22:16.764Z,101471.13
2022-10-06T21:24:44.234Z,101469.47
2022-10-06T21:27:11.675Z,101472.41
2022-10-06T21:29:39.189Z,101475.84
2022-10-06T21:32:06.644Z,101465.78
2022-10-06T21:34:34.105Z,101465.78
2022-10-06T21:37:01.564Z,101467.06
2022-10-06T21:39:29.045Z,101463.16
2022-10-06T21:41:56.515Z,101469.66
2022-10-06T21:44:24.074Z,101465.50
2022-10-06T21:46:52.691Z,101469.50
2022-10-06T21:49:25.329Z,101462.62
2022-10-06T21:51:54.968Z,101465.81
2022-10-06T21:54:23.975Z,101467.69
2022-10-06T21:56:52.201Z,101463.16
2022-10-06T21:59:22.049Z,101468.59
2022-10-06T22:01:52.018Z,101475.34
2022-10-06T22:04:19.737Z,101478.75
2022-10-06T22:06:50.017Z,101472.47
2022-10-06T22:09:22.538Z,101471.66
2022-10-06T22:11:52.309Z,101480.87
2022-10-06T22:14:22.773Z,101470.00
2022-10-06T22:16:52.785Z,101477.31
2022-10-06T22:19:20.415Z,101471.66
2022-10-06T22:21:49.458Z,101478.75
2022-10-06T22:24:20.191Z,101470.13
2022-10-06T22:26:48.372Z,101477.84
2022-10-06T22:29:18.052Z,101476.78
2022-10-06T22:31:48.981Z,101471.94
2022-10-06T22:34:19.291Z,101469.81
2022-10-06T22:36:47.109Z,101477.56
2022-10-06T22:39:14.640Z,101466.78
2022-10-06T22:41:42.311Z,101465.50
2022-10-06T22:44:09.836Z,101465.88
2022-10-06T22:46:39.681Z,101461.63
2022-10-06T22:49:07.542Z,101458.06
2022-10-06T22:51:35.508Z,101457.84
2022-10-06T22:54:03.119Z,101454.50
2022-10-06T22:56:33.036Z,101461.84
2022-10-06T22:59:02.918Z,101454.37
2022-10-06T23:01:30.770Z,101454.59
2022-10-06T23:03:58.842Z,101450.44
2022-10-06T23:06:26.701Z,101449.84
2022-10-06T23:08:54.216Z,101444.31
2022-10-06T23:11:23.324Z,101445.50
2022-10-06T23:13:52.909Z,101444.09
2022-10-06T23:16:21.759Z,101444.34
2022-10-06T23:18:49.850Z,101453.75
2022-10-06T23:21:23.927Z,101450.63
2022-10-06T23:23:57.352Z,101443.16
2022-10-06T23:26:25.340Z,101443.59
2022-10-06T23:28:55.663Z,101440.66
2022-10-06T23:31:23.942Z,101434.84
2022-10-06T23:33:52.159Z,101437.09
2022-10-06T23:36:19.686Z,101434.00
2022-10-06T23:38:48.220Z,101440.16
2022-10-06T23:41:16.226Z,101434.09
2022-10-06T23:43:43.984Z,101442.97
2022-10-06T23:46:11.912Z,101437.13
2022-10-06T23:48:39.701Z,101431.91
2022-10-06T23:51:10.323Z,101443.72
2022-10-06T23:53:37.868Z,101433.66
2022-10-06T23:56:06.108Z,101436.84
2022-10-06T23:58:33.835Z,101441.38
